sensor_id;sensor_type;location;lat;lon;timestamp;P1;P2;P0
47587;PMS5003;34356;45.788;12.046;2023-03-09T00:00:06;50;44;
47587;PMS5003;34356;45.788;12.046;2023-03-09T00:02:35;51;44;
47587;PMS5003;34356;45.788;12.046;2023-03-09T00:05:04;51;44;
47587;PMS5003;34356;45.788;12.046;2023-03-09T00:07:32;54;50;
47587;PMS5003;34356;45.788;12.046;2023-03-09T00:10:00;52;45;
47587;PMS5003;34356;45.788;12.046;2023-03-09T00:12:27;50;44;
47587;PMS5003;34356;45.788;12.046;2023-03-09T00:14:55;50;47;
47587;PMS5003;34356;45.788;12.046;2023-03-09T00:17:23;49;47;
47587;PMS5003;34356;45.788;12.046;2023-03-09T00:19:51;58;56;
47587;PMS5003;34356;45.788;12.046;2023-03-09T00:22:19;69;63;
47587;PMS5003;34356;45.788;12.046;2023-03-09T00:24:46;54;51;
47587;PMS5003;34356;45.788;12.046;2023-03-09T00:27:14;58;53;
47587;PMS5003;34356;45.788;12.046;2023-03-09T00:29:41;59;51;
47587;PMS5003;34356;45.788;12.046;2023-03-09T00:32:09;59;55;
47587;PMS5003;34356;45.788;12.046;2023-03-09T00:34:36;52;50;
47587;PMS5003;34356;45.788;12.046;2023-03-09T00:37:04;52;50;
47587;PMS5003;34356;45.788;12.046;2023-03-09T00:39:31;43;40;
47587;PMS5003;34356;45.788;12.046;2023-03-09T00:41:58;51;48;
47587;PMS5003;34356;45.788;12.046;2023-03-09T00:44:25;51;51;
47587;PMS5003;34356;45.788;12.046;2023-03-09T00:46:53;56;53;
47587;PMS5003;34356;45.788;12.046;2023-03-09T00:49:20;49;47;
47587;PMS5003;34356;45.788;12.046;2023-03-09T00:51:48;53;52;
47587;PMS5003;34356;45.788;12.046;2023-03-09T00:54:16;44;43;
47587;PMS5003;34356;45.788;12.046;2023-03-09T00:56:44;53;50;
47587;PMS5003;34356;45.788;12.046;2023-03-09T00:59:12;55;52;
47587;PMS5003;34356;45.788;12.046;2023-03-09T01:01:39;50;45;
47587;PMS5003;34356;45.788;12.046;2023-03-09T01:04:07;41;37;
47587;PMS5003;34356;45.788;12.046;2023-03-09T01:06:34;51;47;
47587;PMS5003;34356;45.788;12.046;2023-03-09T01:09:02;51;49;
47587;PMS5003;34356;45.788;12.046;2023-03-09T01:11:30;48;41;
47587;PMS5003;34356;45.788;12.046;2023-03-09T01:13:58;46;44;
47587;PMS5003;34356;45.788;12.046;2023-03-09T01:16:26;50;47;
47587;PMS5003;34356;45.788;12.046;2023-03-09T01:18:54;47;44;
47587;PMS5003;34356;45.788;12.046;2023-03-09T01:21:22;56;50;
47587;PMS5003;34356;45.788;12.046;2023-03-09T01:23:51;46;45;
47587;PMS5003;34356;45.788;12.046;2023-03-09T01:26:18;49;43;
47587;PMS5003;34356;45.788;12.046;2023-03-09T01:28:46;58;53;
47587;PMS5003;34356;45.788;12.046;2023-03-09T01:31:14;51;47;
47587;PMS5003;34356;45.788;12.046;2023-03-09T01:33:43;44;41;
47587;PMS5003;34356;45.788;12.046;2023-03-09T01:36:12;40;40;
47587;PMS5003;34356;45.788;12.046;2023-03-09T01:38:41;43;40;
47587;PMS5003;34356;45.788;12.046;2023-03-09T01:41:09;55;51;
47587;PMS5003;34356;45.788;12.046;2023-03-09T01:43:37;44;41;
47587;PMS5003;34356;45.788;12.046;2023-03-09T01:46:24;40;40;
47587;PMS5003;34356;45.788;12.046;2023-03-09T01:48:57;41;39;
47587;PMS5003;34356;45.788;12.046;2023-03-09T01:51:29;46;44;
47587;PMS5003;34356;45.788;12.046;2023-03-09T01:54:03;40;40;
47587;PMS5003;34356;45.788;12.046;2023-03-09T01:56:33;45;43;
47587;PMS5003;34356;45.788;12.046;2023-03-09T01:59:02;42;39;
47587;PMS5003;34356;45.788;12.046;2023-03-09T02:01:32;33;33;
47587;PMS5003;34356;45.788;12.046;2023-03-09T02:04:03;42;38;
47587;PMS5003;34356;45.788;12.046;2023-03-09T02:06:33;42;40;
47587;PMS5003;34356;45.788;12.046;2023-03-09T02:09:06;55;49;
47587;PMS5003;34356;45.788;12.046;2023-03-09T02:11:39;44;40;
47587;PMS5003;34356;45.788;12.046;2023-03-09T02:14:08;56;54;
47587;PMS5003;34356;45.788;12.046;2023-03-09T02:16:36;48;46;
47587;PMS5003;34356;45.788;12.046;2023-03-09T02:19:05;59;56;
47587;PMS5003;34356;45.788;12.046;2023-03-09T02:21:38;49;43;
47587;PMS5003;34356;45.788;12.046;2023-03-09T02:24:24;53;52;
47587;PMS5003;34356;45.788;12.046;2023-03-09T02:27:00;42;39;
47587;PMS5003;34356;45.788;12.046;2023-03-09T02:29:35;42;39;
47587;PMS5003;34356;45.788;12.046;2023-03-09T02:32:04;43;40;
47587;PMS5003;34356;45.788;12.046;2023-03-09T02:34:32;51;49;
47587;PMS5003;34356;45.788;12.046;2023-03-09T02:36:59;45;43;
47587;PMS5003;34356;45.788;12.046;2023-03-09T02:39:29;44;42;
47587;PMS5003;34356;45.788;12.046;2023-03-09T02:42:02;43;43;
47587;PMS5003;34356;45.788;12.046;2023-03-09T02:44:32;45;43;
47587;PMS5003;34356;45.788;12.046;2023-03-09T02:47:00;42;39;
47587;PMS5003;34356;45.788;12.046;2023-03-09T02:49:32;59;59;
47587;PMS5003;34356;45.788;12.046;2023-03-09T02:51:59;61;61;
47587;PMS5003;34356;45.788;12.046;2023-03-09T02:54:28;40;34;
47587;PMS5003;34356;45.788;12.046;2023-03-09T02:56:56;63;59;
47587;PMS5003;34356;45.788;12.046;2023-03-09T02:59:23;48;45;
47587;PMS5003;34356;45.788;12.046;2023-03-09T03:01:51;44;43;
47587;PMS5003;34356;45.788;12.046;2023-03-09T03:04:18;47;46;
47587;PMS5003;34356;45.788;12.046;2023-03-09T03:06:46;47;46;
47587;PMS5003;34356;45.788;12.046;2023-03-09T03:09:14;44;41;
47587;PMS5003;34356;45.788;12.046;2023-03-09T03:11:42;44;40;
47587;PMS5003;34356;45.788;12.046;2023-03-09T03:14:10;51;47;
47587;PMS5003;34356;45.788;12.046;2023-03-09T03:16:38;56;49;
47587;PMS5003;34356;45.788;12.046;2023-03-09T03:19:05;44;40;
47587;PMS5003;34356;45.788;12.046;2023-03-09T03:21:33;39;37;
47587;PMS5003;34356;45.788;12.046;2023-03-09T03:24:01;43;43;
47587;PMS5003;34356;45.788;12.046;2023-03-09T03:26:28;37;34;
47587;PMS5003;34356;45.788;12.046;2023-03-09T03:28:56;36;35;
47587;PMS5003;34356;45.788;12.046;2023-03-09T03:31:24;39;35;
47587;PMS5003;34356;45.788;12.046;2023-03-09T03:33:51;46;42;
47587;PMS5003;34356;45.788;12.046;2023-03-09T03:36:19;42;41;
47587;PMS5003;34356;45.788;12.046;2023-03-09T03:38:46;36;34;
47587;PMS5003;34356;45.788;12.046;2023-03-09T03:41:13;60;52;
47587;PMS5003;34356;45.788;12.046;2023-03-09T03:43:41;43;41;
47587;PMS5003;34356;45.788;12.046;2023-03-09T03:46:10;54;53;
47587;PMS5003;34356;45.788;12.046;2023-03-09T03:48:38;37;34;
47587;PMS5003;34356;45.788;12.046;2023-03-09T03:51:06;55;51;
47587;PMS5003;34356;45.788;12.046;2023-03-09T03:53:34;35;32;
47587;PMS5003;34356;45.788;12.046;2023-03-09T03:56:01;49;47;
47587;PMS5003;34356;45.788;12.046;2023-03-09T03:58:29;70;64;
47587;PMS5003;34356;45.788;12.046;2023-03-09T04:00:58;40;39;
47587;PMS5003;34356;45.788;12.046;2023-03-09T04:03:25;40;37;
47587;PMS5003;34356;45.788;12.046;2023-03-09T04:05:52;35;34;
47587;PMS5003;34356;45.788;12.046;2023-03-09T04:08:20;51;47;
47587;PMS5003;34356;45.788;12.046;2023-03-09T04:10:47;38;37;
47587;PMS5003;34356;45.788;12.046;2023-03-09T04:13:15;40;38;
47587;PMS5003;34356;45.788;12.046;2023-03-09T04:15:42;40;39;
47587;PMS5003;34356;45.788;12.046;2023-03-09T04:18:10;34;32;
47587;PMS5003;34356;45.788;12.046;2023-03-09T04:20:38;36;35;
47587;PMS5003;34356;45.788;12.046;2023-03-09T04:23:07;58;55;
47587;PMS5003;34356;45.788;12.046;2023-03-09T04:25:35;34;32;
47587;PMS5003;34356;45.788;12.046;2023-03-09T04:28:04;41;36;
47587;PMS5003;34356;45.788;12.046;2023-03-09T04:30:32;41;38;
47587;PMS5003;34356;45.788;12.046;2023-03-09T04:32:59;41;40;
47587;PMS5003;34356;45.788;12.046;2023-03-09T04:35:28;65;58;
47587;PMS5003;34356;45.788;12.046;2023-03-09T04:37:56;34;33;
47587;PMS5003;34356;45.788;12.046;2023-03-09T04:40:24;34;34;
47587;PMS5003;34356;45.788;12.046;2023-03-09T04:42:51;39;34;
47587;PMS5003;34356;45.788;12.046;2023-03-09T04:45:19;45;40;
47587;PMS5003;34356;45.788;12.046;2023-03-09T04:47:47;42;35;
47587;PMS5003;34356;45.788;12.046;2023-03-09T04:50:15;63;63;
47587;PMS5003;34356;45.788;12.046;2023-03-09T04:52:43;48;44;
47587;PMS5003;34356;45.788;12.046;2023-03-09T04:55:11;43;37;
47587;PMS5003;34356;45.788;12.046;2023-03-09T04:57:38;43;41;
47587;PMS5003;34356;45.788;12.046;2023-03-09T05:00:07;54;50;
47587;PMS5003;34356;45.788;12.046;2023-03-09T05:02:36;41;40;
47587;PMS5003;34356;45.788;12.046;2023-03-09T05:05:05;46;45;
47587;PMS5003;34356;45.788;12.046;2023-03-09T05:07:34;38;36;
47587;PMS5003;34356;45.788;12.046;2023-03-09T05:10:02;35;31;
47587;PMS5003;34356;45.788;12.046;2023-03-09T05:12:30;37;35;
47587;PMS5003;34356;45.788;12.046;2023-03-09T05:14:58;25;24;
47587;PMS5003;34356;45.788;12.046;2023-03-09T05:17:26;39;34;
47587;PMS5003;34356;45.788;12.046;2023-03-09T05:19:54;55;49;
47587;PMS5003;34356;45.788;12.046;2023-03-09T05:22:21;36;30;
47587;PMS5003;34356;45.788;12.046;2023-03-09T05:24:50;55;52;
47587;PMS5003;34356;45.788;12.046;2023-03-09T05:27:17;37;33;
47587;PMS5003;34356;45.788;12.046;2023-03-09T05:29:44;42;41;
47587;PMS5003;34356;45.788;12.046;2023-03-09T05:32:12;31;29;
47587;PMS5003;34356;45.788;12.046;2023-03-09T05:34:39;44;39;
47587;PMS5003;34356;45.788;12.046;2023-03-09T05:37:07;32;32;
47587;PMS5003;34356;45.788;12.046;2023-03-09T05:39:34;37;32;
47587;PMS5003;34356;45.788;12.046;2023-03-09T05:42:02;37;34;
47587;PMS5003;34356;45.788;12.046;2023-03-09T05:44:30;32;32;
47587;PMS5003;34356;45.788;12.046;2023-03-09T05:46:58;39;37;
47587;PMS5003;34356;45.788;12.046;2023-03-09T05:49:26;40;38;
47587;PMS5003;34356;45.788;12.046;2023-03-09T05:51:54;45;40;
47587;PMS5003;34356;45.788;12.046;2023-03-09T05:54:21;35;34;
47587;PMS5003;34356;45.788;12.046;2023-03-09T05:56:52;37;35;
47587;PMS5003;34356;45.788;12.046;2023-03-09T05:59:20;38;33;
47587;PMS5003;34356;45.788;12.046;2023-03-09T06:01:48;38;31;
47587;PMS5003;34356;45.788;12.046;2023-03-09T06:04:15;38;37;
47587;PMS5003;34356;45.788;12.046;2023-03-09T06:06:43;52;43;
47587;PMS5003;34356;45.788;12.046;2023-03-09T06:09:10;43;39;
47587;PMS5003;34356;45.788;12.046;2023-03-09T06:11:38;49;47;
47587;PMS5003;34356;45.788;12.046;2023-03-09T06:14:07;42;42;
47587;PMS5003;34356;45.788;12.046;2023-03-09T06:16:34;42;40;
47587;PMS5003;34356;45.788;12.046;2023-03-09T06:19:01;40;35;
47587;PMS5003;34356;45.788;12.046;2023-03-09T06:21:29;46;38;
47587;PMS5003;34356;45.788;12.046;2023-03-09T06:23:56;51;46;
47587;PMS5003;34356;45.788;12.046;2023-03-09T06:26:25;42;38;
47587;PMS5003;34356;45.788;12.046;2023-03-09T06:28:52;50;40;
47587;PMS5003;34356;45.788;12.046;2023-03-09T06:31:19;44;43;
47587;PMS5003;34356;45.788;12.046;2023-03-09T06:33:46;35;35;
47587;PMS5003;34356;45.788;12.046;2023-03-09T06:36:15;43;43;
47587;PMS5003;34356;45.788;12.046;2023-03-09T06:38:44;38;36;
47587;PMS5003;34356;45.788;12.046;2023-03-09T06:41:11;38;33;
47587;PMS5003;34356;45.788;12.046;2023-03-09T06:43:39;46;44;
47587;PMS5003;34356;45.788;12.046;2023-03-09T06:46:07;46;42;
47587;PMS5003;34356;45.788;12.046;2023-03-09T06:48:34;36;31;
47587;PMS5003;34356;45.788;12.046;2023-03-09T06:51:01;48;44;
47587;PMS5003;34356;45.788;12.046;2023-03-09T06:53:29;50;46;
47587;PMS5003;34356;45.788;12.046;2023-03-09T06:55:58;57;53;
47587;PMS5003;34356;45.788;12.046;2023-03-09T06:58:30;51;49;
47587;PMS5003;34356;45.788;12.046;2023-03-09T07:01:04;50;46;
47587;PMS5003;34356;45.788;12.046;2023-03-09T07:03:31;48;45;
47587;PMS5003;34356;45.788;12.046;2023-03-09T07:05:58;50;44;
47587;PMS5003;34356;45.788;12.046;2023-03-09T07:08:26;44;40;
47587;PMS5003;34356;45.788;12.046;2023-03-09T07:10:53;45;44;
47587;PMS5003;34356;45.788;12.046;2023-03-09T07:13:20;43;41;
47587;PMS5003;34356;45.788;12.046;2023-03-09T07:15:48;49;46;
47587;PMS5003;34356;45.788;12.046;2023-03-09T07:18:16;40;37;
47587;PMS5003;34356;45.788;12.046;2023-03-09T07:20:43;34;34;
47587;PMS5003;34356;45.788;12.046;2023-03-09T07:23:11;40;37;
47587;PMS5003;34356;45.788;12.046;2023-03-09T07:25:38;42;38;
47587;PMS5003;34356;45.788;12.046;2023-03-09T07:28:06;42;39;
47587;PMS5003;34356;45.788;12.046;2023-03-09T07:30:35;41;36;
47587;PMS5003;34356;45.788;12.046;2023-03-09T07:33:04;43;40;
47587;PMS5003;34356;45.788;12.046;2023-03-09T07:35:32;37;35;
47587;PMS5003;34356;45.788;12.046;2023-03-09T07:37:59;47;40;
47587;PMS5003;34356;45.788;12.046;2023-03-09T07:40:27;35;33;
47587;PMS5003;34356;45.788;12.046;2023-03-09T07:42:54;34;32;
47587;PMS5003;34356;45.788;12.046;2023-03-09T07:45:22;34;34;
47587;PMS5003;34356;45.788;12.046;2023-03-09T07:47:49;26;25;
47587;PMS5003;34356;45.788;12.046;2023-03-09T07:50:18;40;36;
47587;PMS5003;34356;45.788;12.046;2023-03-09T07:52:46;32;28;
47587;PMS5003;34356;45.788;12.046;2023-03-09T07:55:13;37;32;
47587;PMS5003;34356;45.788;12.046;2023-03-09T07:57:41;46;46;
47587;PMS5003;34356;45.788;12.046;2023-03-09T08:00:11;40;37;
47587;PMS5003;34356;45.788;12.046;2023-03-09T08:02:40;43;41;
47587;PMS5003;34356;45.788;12.046;2023-03-09T08:05:08;40;36;
47587;PMS5003;34356;45.788;12.046;2023-03-09T08:07:36;42;35;
47587;PMS5003;34356;45.788;12.046;2023-03-09T08:10:04;37;35;
47587;PMS5003;34356;45.788;12.046;2023-03-09T08:12:33;37;37;
47587;PMS5003;34356;45.788;12.046;2023-03-09T08:15:00;30;29;
47587;PMS5003;34356;45.788;12.046;2023-03-09T08:17:28;33;31;
47587;PMS5003;34356;45.788;12.046;2023-03-09T08:19:55;32;30;
47587;PMS5003;34356;45.788;12.046;2023-03-09T08:22:22;29;27;
47587;PMS5003;34356;45.788;12.046;2023-03-09T08:24:49;33;27;
47587;PMS5003;34356;45.788;12.046;2023-03-09T08:27:17;27;26;
47587;PMS5003;34356;45.788;12.046;2023-03-09T08:29:44;30;27;
47587;PMS5003;34356;45.788;12.046;2023-03-09T08:32:12;27;22;
47587;PMS5003;34356;45.788;12.046;2023-03-09T08:34:39;23;21;
47587;PMS5003;34356;45.788;12.046;2023-03-09T08:37:07;25;25;
47587;PMS5003;34356;45.788;12.046;2023-03-09T08:39:34;30;29;
47587;PMS5003;34356;45.788;12.046;2023-03-09T08:42:02;25;23;
47587;PMS5003;34356;45.788;12.046;2023-03-09T08:44:30;25;24;
47587;PMS5003;34356;45.788;12.046;2023-03-09T08:46:58;20;20;
47587;PMS5003;34356;45.788;12.046;2023-03-09T08:49:26;23;23;
47587;PMS5003;34356;45.788;12.046;2023-03-09T08:51:53;23;22;
47587;PMS5003;34356;45.788;12.046;2023-03-09T08:54:21;25;22;
47587;PMS5003;34356;45.788;12.046;2023-03-09T08:56:48;20;19;
47587;PMS5003;34356;45.788;12.046;2023-03-09T08:59:16;29;26;
47587;PMS5003;34356;45.788;12.046;2023-03-09T09:01:43;23;23;
47587;PMS5003;34356;45.788;12.046;2023-03-09T09:04:10;20;20;
47587;PMS5003;34356;45.788;12.046;2023-03-09T09:06:38;23;22;
47587;PMS5003;34356;45.788;12.046;2023-03-09T09:09:05;22;22;
47587;PMS5003;34356;45.788;12.046;2023-03-09T09:11:33;26;24;
47587;PMS5003;34356;45.788;12.046;2023-03-09T09:14:01;26;24;
47587;PMS5003;34356;45.788;12.046;2023-03-09T09:16:28;22;21;
47587;PMS5003;34356;45.788;12.046;2023-03-09T09:18:56;25;24;
47587;PMS5003;34356;45.788;12.046;2023-03-09T09:21:25;23;21;
47587;PMS5003;34356;45.788;12.046;2023-03-09T09:23:52;24;22;
47587;PMS5003;34356;45.788;12.046;2023-03-09T09:26:20;27;21;
47587;PMS5003;34356;45.788;12.046;2023-03-09T09:28:48;23;22;
47587;PMS5003;34356;45.788;12.046;2023-03-09T09:31:16;29;26;
47587;PMS5003;34356;45.788;12.046;2023-03-09T09:33:46;28;26;
47587;PMS5003;34356;45.788;12.046;2023-03-09T09:36:14;22;21;
47587;PMS5003;34356;45.788;12.046;2023-03-09T09:38:42;28;24;
47587;PMS5003;34356;45.788;12.046;2023-03-09T09:41:12;22;22;
47587;PMS5003;34356;45.788;12.046;2023-03-09T09:43:45;28;27;
47587;PMS5003;34356;45.788;12.046;2023-03-09T09:46:16;23;22;
47587;PMS5003;34356;45.788;12.046;2023-03-09T09:48:47;23;20;
47587;PMS5003;34356;45.788;12.046;2023-03-09T09:51:19;27;27;
47587;PMS5003;34356;45.788;12.046;2023-03-09T09:54:03;33;30;
47587;PMS5003;34356;45.788;12.046;2023-03-09T09:56:42;21;21;
47587;PMS5003;34356;45.788;12.046;2023-03-09T09:59:15;22;21;
47587;PMS5003;34356;45.788;12.046;2023-03-09T10:01:47;24;21;
47587;PMS5003;34356;45.788;12.046;2023-03-09T10:04:25;30;29;
47587;PMS5003;34356;45.788;12.046;2023-03-09T10:06:58;30;28;
47587;PMS5003;34356;45.788;12.046;2023-03-09T10:09:30;26;25;
47587;PMS5003;34356;45.788;12.046;2023-03-09T10:12:01;30;29;
47587;PMS5003;34356;45.788;12.046;2023-03-09T10:14:33;30;28;
47587;PMS5003;34356;45.788;12.046;2023-03-09T10:17:06;27;27;
47587;PMS5003;34356;45.788;12.046;2023-03-09T10:19:40;30;26;
47587;PMS5003;34356;45.788;12.046;2023-03-09T10:22:14;28;27;
47587;PMS5003;34356;45.788;12.046;2023-03-09T10:24:48;24;24;
47587;PMS5003;34356;45.788;12.046;2023-03-09T10:27:18;22;21;
47587;PMS5003;34356;45.788;12.046;2023-03-09T10:29:52;27;26;
47587;PMS5003;34356;45.788;12.046;2023-03-09T10:32:26;30;28;
47587;PMS5003;34356;45.788;12.046;2023-03-09T10:35:06;33;32;
47587;PMS5003;34356;45.788;12.046;2023-03-09T10:37:45;30;29;
47587;PMS5003;34356;45.788;12.046;2023-03-09T10:40:17;32;29;
47587;PMS5003;34356;45.788;12.046;2023-03-09T10:42:46;35;29;
47587;PMS5003;34356;45.788;12.046;2023-03-09T10:45:18;35;34;
47587;PMS5003;34356;45.788;12.046;2023-03-09T10:47:51;36;33;
47587;PMS5003;34356;45.788;12.046;2023-03-09T10:50:22;28;28;
47587;PMS5003;34356;45.788;12.046;2023-03-09T10:52:52;25;24;
47587;PMS5003;34356;45.788;12.046;2023-03-09T10:55:26;23;22;
47587;PMS5003;34356;45.788;12.046;2023-03-09T10:58:14;24;21;
47587;PMS5003;34356;45.788;12.046;2023-03-09T11:01:00;27;25;
47587;PMS5003;34356;45.788;12.046;2023-03-09T11:03:31;31;29;
47587;PMS5003;34356;45.788;12.046;2023-03-09T11:06:10;26;24;
47587;PMS5003;34356;45.788;12.046;2023-03-09T11:09:11;30;27;
47587;PMS5003;34356;45.788;12.046;2023-03-09T11:11:42;28;28;
47587;PMS5003;34356;45.788;12.046;2023-03-09T11:14:20;28;28;
47587;PMS5003;34356;45.788;12.046;2023-03-09T11:16:49;24;24;
47587;PMS5003;34356;45.788;12.046;2023-03-09T11:19:18;30;27;
47587;PMS5003;34356;45.788;12.046;2023-03-09T11:21:50;28;28;
47587;PMS5003;34356;45.788;12.046;2023-03-09T11:24:24;28;22;
47587;PMS5003;34356;45.788;12.046;2023-03-09T11:26:56;34;30;
47587;PMS5003;34356;45.788;12.046;2023-03-09T11:29:28;29;27;
47587;PMS5003;34356;45.788;12.046;2023-03-09T11:32:02;23;22;
47587;PMS5003;34356;45.788;12.046;2023-03-09T11:34:31;29;25;
47587;PMS5003;34356;45.788;12.046;2023-03-09T11:37:01;27;25;
47587;PMS5003;34356;45.788;12.046;2023-03-09T11:39:36;28;25;
47587;PMS5003;34356;45.788;12.046;2023-03-09T11:42:12;26;25;
47587;PMS5003;34356;45.788;12.046;2023-03-09T11:44:46;30;30;
47587;PMS5003;34356;45.788;12.046;2023-03-09T11:47:18;29;29;
47587;PMS5003;34356;45.788;12.046;2023-03-09T11:49:54;24;23;
47587;PMS5003;34356;45.788;12.046;2023-03-09T11:52:26;32;30;
47587;PMS5003;34356;45.788;12.046;2023-03-09T11:54:58;26;22;
47587;PMS5003;34356;45.788;12.046;2023-03-09T11:57:30;34;34;
47587;PMS5003;34356;45.788;12.046;2023-03-09T12:00:00;23;23;
47587;PMS5003;34356;45.788;12.046;2023-03-09T12:02:33;26;23;
47587;PMS5003;34356;45.788;12.046;2023-03-09T12:05:13;21;21;
47587;PMS5003;34356;45.788;12.046;2023-03-09T12:07:44;23;23;
47587;PMS5003;34356;45.788;12.046;2023-03-09T12:10:19;24;23;
47587;PMS5003;34356;45.788;12.046;2023-03-09T12:12:53;23;22;
47587;PMS5003;34356;45.788;12.046;2023-03-09T12:15:29;21;21;
47587;PMS5003;34356;45.788;12.046;2023-03-09T12:18:01;24;23;
47587;PMS5003;34356;45.788;12.046;2023-03-09T12:20:32;24;24;
47587;PMS5003;34356;45.788;12.046;2023-03-09T12:23:03;31;30;
47587;PMS5003;34356;45.788;12.046;2023-03-09T12:25:31;23;21;
47587;PMS5003;34356;45.788;12.046;2023-03-09T12:28:00;28;26;
47587;PMS5003;34356;45.788;12.046;2023-03-09T12:30:30;27;24;
47587;PMS5003;34356;45.788;12.046;2023-03-09T12:32:59;33;28;
47587;PMS5003;34356;45.788;12.046;2023-03-09T12:36:17;30;28;
47587;PMS5003;34356;45.788;12.046;2023-03-09T12:39:07;18;17;
47587;PMS5003;34356;45.788;12.046;2023-03-09T12:41:57;23;21;
47587;PMS5003;34356;45.788;12.046;2023-03-09T12:45:02;21;20;
47587;PMS5003;34356;45.788;12.046;2023-03-09T12:47:49;19;19;
47587;PMS5003;34356;45.788;12.046;2023-03-09T12:50:22;23;19;
47587;PMS5003;34356;45.788;12.046;2023-03-09T12:53:02;23;22;
47587;PMS5003;34356;45.788;12.046;2023-03-09T12:55:43;22;22;
47587;PMS5003;34356;45.788;12.046;2023-03-09T12:58:45;20;20;
47587;PMS5003;34356;45.788;12.046;2023-03-09T13:01:27;20;17;
47587;PMS5003;34356;45.788;12.046;2023-03-09T13:04:14;22;21;
47587;PMS5003;34356;45.788;12.046;2023-03-09T13:06:43;25;24;
47587;PMS5003;34356;45.788;12.046;2023-03-09T13:09:18;21;21;
47587;PMS5003;34356;45.788;12.046;2023-03-09T13:11:50;18;18;
47587;PMS5003;34356;45.788;12.046;2023-03-09T13:15:03;20;18;
47587;PMS5003;34356;45.788;12.046;2023-03-09T13:18:11;23;22;
47587;PMS5003;34356;45.788;12.046;2023-03-09T13:20:48;22;20;
47587;PMS5003;34356;45.788;12.046;2023-03-09T13:23:17;31;28;
47587;PMS5003;34356;45.788;12.046;2023-03-09T13:25:48;27;27;
47587;PMS5003;34356;45.788;12.046;2023-03-09T13:28:28;26;24;
47587;PMS5003;34356;45.788;12.046;2023-03-09T13:31:05;27;27;
47587;PMS5003;34356;45.788;12.046;2023-03-09T13:33:43;22;21;
47587;PMS5003;34356;45.788;12.046;2023-03-09T13:36:14;32;29;
47587;PMS5003;34356;45.788;12.046;2023-03-09T13:38:44;23;23;
47587;PMS5003;34356;45.788;12.046;2023-03-09T13:41:18;19;17;
47587;PMS5003;34356;45.788;12.046;2023-03-09T13:43:47;19;19;
47587;PMS5003;34356;45.788;12.046;2023-03-09T13:46:21;21;21;
47587;PMS5003;34356;45.788;12.046;2023-03-09T13:48:52;26;25;
47587;PMS5003;34356;45.788;12.046;2023-03-09T13:51:26;18;17;
47587;PMS5003;34356;45.788;12.046;2023-03-09T13:53:59;27;27;
47587;PMS5003;34356;45.788;12.046;2023-03-09T13:56:27;18;18;
47587;PMS5003;34356;45.788;12.046;2023-03-09T13:58:54;15;15;
47587;PMS5003;34356;45.788;12.046;2023-03-09T14:01:23;22;19;
47587;PMS5003;34356;45.788;12.046;2023-03-09T14:03:53;18;18;
47587;PMS5003;34356;45.788;12.046;2023-03-09T14:06:26;19;17;
47587;PMS5003;34356;45.788;12.046;2023-03-09T14:08:59;18;18;
47587;PMS5003;34356;45.788;12.046;2023-03-09T14:11:41;19;14;
47587;PMS5003;34356;45.788;12.046;2023-03-09T14:14:14;19;18;
47587;PMS5003;34356;45.788;12.046;2023-03-09T14:16:44;22;18;
47587;PMS5003;34356;45.788;12.046;2023-03-09T14:19:17;16;13;
47587;PMS5003;34356;45.788;12.046;2023-03-09T14:21:51;18;15;
47587;PMS5003;34356;45.788;12.046;2023-03-09T14:24:21;15;14;
47587;PMS5003;34356;45.788;12.046;2023-03-09T14:26:52;18;18;
47587;PMS5003;34356;45.788;12.046;2023-03-09T14:29:21;16;15;
47587;PMS5003;34356;45.788;12.046;2023-03-09T14:32:16;13;13;
47587;PMS5003;34356;45.788;12.046;2023-03-09T14:34:45;13;12;
47587;PMS5003;34356;45.788;12.046;2023-03-09T14:37:16;12;12;
47587;PMS5003;34356;45.788;12.046;2023-03-09T14:39:46;14;11;
47587;PMS5003;34356;45.788;12.046;2023-03-09T14:42:15;15;14;
47587;PMS5003;34356;45.788;12.046;2023-03-09T14:44:45;15;15;
47587;PMS5003;34356;45.788;12.046;2023-03-09T14:47:24;15;15;
47587;PMS5003;34356;45.788;12.046;2023-03-09T14:49:52;17;14;
47587;PMS5003;34356;45.788;12.046;2023-03-09T14:52:21;11;11;
47587;PMS5003;34356;45.788;12.046;2023-03-09T14:54:50;13;13;
47587;PMS5003;34356;45.788;12.046;2023-03-09T14:57:19;13;11;
47587;PMS5003;34356;45.788;12.046;2023-03-09T14:59:46;14;13;
47587;PMS5003;34356;45.788;12.046;2023-03-09T15:02:14;13;12;
47587;PMS5003;34356;45.788;12.046;2023-03-09T15:04:44;12;10;
47587;PMS5003;34356;45.788;12.046;2023-03-09T15:07:14;10;9;
47587;PMS5003;34356;45.788;12.046;2023-03-09T15:09:43;15;13;
47587;PMS5003;34356;45.788;12.046;2023-03-09T15:12:11;12;12;
47587;PMS5003;34356;45.788;12.046;2023-03-09T15:14:41;11;11;
47587;PMS5003;34356;45.788;12.046;2023-03-09T15:17:12;16;12;
47587;PMS5003;34356;45.788;12.046;2023-03-09T15:19:40;13;11;
47587;PMS5003;34356;45.788;12.046;2023-03-09T15:22:10;15;13;
47587;PMS5003;34356;45.788;12.046;2023-03-09T15:24:38;35;33;
47587;PMS5003;34356;45.788;12.046;2023-03-09T15:27:06;38;35;
47587;PMS5003;34356;45.788;12.046;2023-03-09T15:29:34;40;37;
47587;PMS5003;34356;45.788;12.046;2023-03-09T15:32:03;43;38;
47587;PMS5003;34356;45.788;12.046;2023-03-09T15:34:33;35;33;
47587;PMS5003;34356;45.788;12.046;2023-03-09T15:37:00;28;26;
47587;PMS5003;34356;45.788;12.046;2023-03-09T15:39:28;25;22;
47587;PMS5003;34356;45.788;12.046;2023-03-09T15:41:56;29;25;
47587;PMS5003;34356;45.788;12.046;2023-03-09T15:44:24;19;18;
47587;PMS5003;34356;45.788;12.046;2023-03-09T15:46:52;19;19;
47587;PMS5003;34356;45.788;12.046;2023-03-09T15:49:20;16;16;
47587;PMS5003;34356;45.788;12.046;2023-03-09T15:51:48;13;13;
47587;PMS5003;34356;45.788;12.046;2023-03-09T15:54:16;13;13;
47587;PMS5003;34356;45.788;12.046;2023-03-09T15:56:44;12;11;
47587;PMS5003;34356;45.788;12.046;2023-03-09T15:59:11;15;14;
47587;PMS5003;34356;45.788;12.046;2023-03-09T16:01:39;8;8;
47587;PMS5003;34356;45.788;12.046;2023-03-09T16:04:07;11;11;
47587;PMS5003;34356;45.788;12.046;2023-03-09T16:06:34;13;12;
47587;PMS5003;34356;45.788;12.046;2023-03-09T16:09:02;13;12;
47587;PMS5003;34356;45.788;12.046;2023-03-09T16:11:30;15;12;
47587;PMS5003;34356;45.788;12.046;2023-03-09T16:13:57;14;12;
47587;PMS5003;34356;45.788;12.046;2023-03-09T16:16:25;9;8;
47587;PMS5003;34356;45.788;12.046;2023-03-09T16:18:52;15;15;
47587;PMS5003;34356;45.788;12.046;2023-03-09T16:21:19;11;11;